sensor_id;sensor_type;location;lat;lon;timestamp;pressure;altitude;pressure_sealevel;temperature
75353;BMP280;76704;51.574;7.088;2024-03-22T00:00:03;71636.03;;;15.62
75353;BMP280;76704;51.574;7.088;2024-03-22T00:02:49;71434.53;;;15.60
75353;BMP280;76704;51.574;7.088;2024-03-22T00:05:16;71067.28;;;15.52
75353;BMP280;76704;51.574;7.088;2024-03-22T00:07:45;71273.53;;;15.53
75353;BMP280;76704;51.574;7.088;2024-03-22T00:10:13;71233.69;;;15.54
75353;BMP280;76704;51.574;7.088;2024-03-22T00:12:40;71360.84;;;15.52
75353;BMP280;76704;51.574;7.088;2024-03-22T00:15:09;71334.97;;;15.53
75353;BMP280;76704;51.574;7.088;2024-03-22T00:17:37;71391.53;;;15.53
75353;BMP280;76704;51.574;7.088;2024-03-22T00:20:06;71610.22;;;15.56
75353;BMP280;76704;51.574;7.088;2024-03-22T00:22:33;71748.13;;;15.59
75353;BMP280;76704;51.574;7.088;2024-03-22T00:25:01;71608.03;;;15.59
75353;BMP280;76704;51.574;7.088;2024-03-22T00:27:28;71866.63;;;15.64
75353;BMP280;76704;51.574;7.088;2024-03-22T00:29:55;71652.19;;;15.60
75353;BMP280;76704;51.574;7.088;2024-03-22T00:32:22;71386.66;;;15.56
75353;BMP280;76704;51.574;7.088;2024-03-22T00:34:49;71633.91;;;15.58
75353;BMP280;76704;51.574;7.088;2024-03-22T00:37:16;71493.38;;;15.50
75353;BMP280;76704;51.574;7.088;2024-03-22T00:39:44;71833.25;;;15.60
75353;BMP280;76704;51.574;7.088;2024-03-22T00:42:11;71925.41;;;15.61
75353;BMP280;76704;51.574;7.088;2024-03-22T00:44:39;71937.78;;;15.60
75353;BMP280;76704;51.574;7.088;2024-03-22T00:47:07;72166.28;;;15.67
75353;BMP280;76704;51.574;7.088;2024-03-22T00:49:37;72272.97;;;15.71
75353;BMP280;76704;51.574;7.088;2024-03-22T00:52:03;72127.97;;;15.69
75353;BMP280;76704;51.574;7.088;2024-03-22T00:54:30;72327.97;;;15.72
75353;BMP280;76704;51.574;7.088;2024-03-22T00:56:58;72752.81;;;15.81
75353;BMP280;76704;51.574;7.088;2024-03-22T00:59:26;72694.06;;;15.82
75353;BMP280;76704;51.574;7.088;2024-03-22T01:01:53;72779.25;;;15.81
75353;BMP280;76704;51.574;7.088;2024-03-22T01:04:21;72849.91;;;15.84
75353;BMP280;76704;51.574;7.088;2024-03-22T01:06:48;73105.06;;;15.90
75353;BMP280;76704;51.574;7.088;2024-03-22T01:09:17;73176.81;;;15.92
75353;BMP280;76704;51.574;7.088;2024-03-22T01:11:46;73379.16;;;15.97
75353;BMP280;76704;51.574;7.088;2024-03-22T01:14:14;73146.66;;;15.94
75353;BMP280;76704;51.574;7.088;2024-03-22T01:16:43;73232.41;;;15.93
75353;BMP280;76704;51.574;7.088;2024-03-22T01:19:09;73441.72;;;15.95
75353;BMP280;76704;51.574;7.088;2024-03-22T01:21:36;72807.34;;;15.89
75353;BMP280;76704;51.574;7.088;2024-03-22T01:24:03;73052.25;;;15.94
75353;BMP280;76704;51.574;7.088;2024-03-22T01:26:31;73443.41;;;15.99
75353;BMP280;76704;51.574;7.088;2024-03-22T01:28:58;73196.22;;;15.92
75353;BMP280;76704;51.574;7.088;2024-03-22T01:31:26;73300.41;;;15.97
75353;BMP280;76704;51.574;7.088;2024-03-22T01:33:55;73071.09;;;15.91
75353;BMP280;76704;51.574;7.088;2024-03-22T01:36:24;73293.91;;;15.96
75353;BMP280;76704;51.574;7.088;2024-03-22T01:38:51;72908.75;;;15.91
75353;BMP280;76704;51.574;7.088;2024-03-22T01:41:19;73085.03;;;15.84
75353;BMP280;76704;51.574;7.088;2024-03-22T01:43:45;73203.81;;;15.94
75353;BMP280;76704;51.574;7.088;2024-03-22T01:46:14;73412.09;;;15.98
75353;BMP280;76704;51.574;7.088;2024-03-22T01:48:41;73544.81;;;15.98
75353;BMP280;76704;51.574;7.088;2024-03-22T01:51:09;73786.72;;;16.07
75353;BMP280;76704;51.574;7.088;2024-03-22T01:53:38;73717.63;;;16.06
75353;BMP280;76704;51.574;7.088;2024-03-22T01:56:07;73988.69;;;16.12
75353;BMP280;76704;51.574;7.088;2024-03-22T01:58:34;73957.94;;;16.13
75353;BMP280;76704;51.574;7.088;2024-03-22T02:01:03;73668.56;;;16.08
75353;BMP280;76704;51.574;7.088;2024-03-22T02:03:29;73824.56;;;16.10
75353;BMP280;76704;51.574;7.088;2024-03-22T02:05:56;73675.56;;;16.07
75353;BMP280;76704;51.574;7.088;2024-03-22T02:08:23;73590.81;;;16.06
75353;BMP280;76704;51.574;7.088;2024-03-22T02:10:49;73765.69;;;16.08
75353;BMP280;76704;51.574;7.088;2024-03-22T02:13:16;74213.28;;;16.15
75353;BMP280;76704;51.574;7.088;2024-03-22T02:15:45;74227.41;;;16.18
75353;BMP280;76704;51.574;7.088;2024-03-22T02:18:13;74338.25;;;16.23
75353;BMP280;76704;51.574;7.088;2024-03-22T02:20:39;74083.81;;;16.17
75353;BMP280;76704;51.574;7.088;2024-03-22T02:23:06;73995.72;;;16.13
75353;BMP280;76704;51.574;7.088;2024-03-22T02:25:33;73486.72;;;16.07
75353;BMP280;76704;51.574;7.088;2024-03-22T02:28:02;73761.94;;;16.09
75353;BMP280;76704;51.574;7.088;2024-03-22T02:30:29;73788.34;;;16.06
75353;BMP280;76704;51.574;7.088;2024-03-22T02:32:55;74220.97;;;16.19
75353;BMP280;76704;51.574;7.088;2024-03-22T02:35:22;74101.59;;;16.16
75353;BMP280;76704;51.574;7.088;2024-03-22T02:37:50;73939.13;;;16.16
75353;BMP280;76704;51.574;7.088;2024-03-22T02:40:16;74238.84;;;16.21
75353;BMP280;76704;51.574;7.088;2024-03-22T02:42:43;74167.00;;;16.19
75353;BMP280;76704;51.574;7.088;2024-03-22T02:45:11;73919.13;;;16.15
75353;BMP280;76704;51.574;7.088;2024-03-22T02:47:38;74276.63;;;16.21
75353;BMP280;76704;51.574;7.088;2024-03-22T02:50:07;74459.22;;;16.25
75353;BMP280;76704;51.574;7.088;2024-03-22T02:52:35;74127.63;;;16.20
75353;BMP280;76704;51.574;7.088;2024-03-22T02:55:04;74468.44;;;16.26
75353;BMP280;76704;51.574;7.088;2024-03-22T02:57:31;74693.25;;;16.32
75353;BMP280;76704;51.574;7.088;2024-03-22T03:00:00;74752.75;;;16.34
75353;BMP280;76704;51.574;7.088;2024-03-22T03:02:30;74600.34;;;16.31
75353;BMP280;76704;51.574;7.088;2024-03-22T03:04:57;74869.97;;;16.35
75353;BMP280;76704;51.574;7.088;2024-03-22T03:07:24;74706.31;;;16.34
75353;BMP280;76704;51.574;7.088;2024-03-22T03:09:53;74365.38;;;16.28
75353;BMP280;76704;51.574;7.088;2024-03-22T03:12:21;74358.88;;;16.27
75353;BMP280;76704;51.574;7.088;2024-03-22T03:14:48;74634.88;;;16.30
75353;BMP280;76704;51.574;7.088;2024-03-22T03:17:16;74487.97;;;16.29
75353;BMP280;76704;51.574;7.088;2024-03-22T03:19:44;74554.53;;;16.33
75353;BMP280;76704;51.574;7.088;2024-03-22T03:22:10;74733.84;;;16.34
75353;BMP280;76704;51.574;7.088;2024-03-22T03:24:38;74583.13;;;16.32
75353;BMP280;76704;51.574;7.088;2024-03-22T03:27:05;74521.50;;;16.30
75353;BMP280;76704;51.574;7.088;2024-03-22T03:29:32;74957.63;;;16.39
75353;BMP280;76704;51.574;7.088;2024-03-22T03:32:00;74550.16;;;16.32
75353;BMP280;76704;51.574;7.088;2024-03-22T03:34:27;74549.03;;;16.31
75353;BMP280;76704;51.574;7.088;2024-03-22T03:36:54;74543.56;;;16.28
75353;BMP280;76704;51.574;7.088;2024-03-22T03:39:23;74708.50;;;16.36
75353;BMP280;76704;51.574;7.088;2024-03-22T03:41:52;74605.66;;;16.28
75353;BMP280;76704;51.574;7.088;2024-03-22T03:44:19;74257.97;;;16.29
75353;BMP280;76704;51.574;7.088;2024-03-22T03:46:49;74035.38;;;16.22
75353;BMP280;76704;51.574;7.088;2024-03-22T03:49:17;73765.81;;;16.13
75353;BMP280;76704;51.574;7.088;2024-03-22T03:51:45;74247.50;;;16.21
75353;BMP280;76704;51.574;7.088;2024-03-22T03:54:12;74022.22;;;16.15
75353;BMP280;76704;51.574;7.088;2024-03-22T03:56:40;74308.47;;;16.20
75353;BMP280;76704;51.574;7.088;2024-03-22T03:59:08;74228.91;;;16.14
75353;BMP280;76704;51.574;7.088;2024-03-22T04:01:37;73823.56;;;16.14
75353;BMP280;76704;51.574;7.088;2024-03-22T04:04:05;73243.84;;;16.02
75353;BMP280;76704;51.574;7.088;2024-03-22T04:06:32;73345.28;;;16.03
75353;BMP280;76704;51.574;7.088;2024-03-22T04:09:01;73970.88;;;16.13
75353;BMP280;76704;51.574;7.088;2024-03-22T04:11:29;73976.28;;;16.13
75353;BMP280;76704;51.574;7.088;2024-03-22T04:13:58;74078.34;;;16.15
75353;BMP280;76704;51.574;7.088;2024-03-22T04:16:26;74216.53;;;16.15
75353;BMP280;76704;51.574;7.088;2024-03-22T04:18:54;74322.50;;;16.21
75353;BMP280;76704;51.574;7.088;2024-03-22T04:21:20;74519.09;;;16.23
75353;BMP280;76704;51.574;7.088;2024-03-22T04:23:47;74498.59;;;16.24
75353;BMP280;76704;51.574;7.088;2024-03-22T04:26:15;73969.94;;;16.17
75353;BMP280;76704;51.574;7.088;2024-03-22T04:28:41;74163.09;;;16.16
75353;BMP280;76704;51.574;7.088;2024-03-22T04:31:09;74297.66;;;16.20
75353;BMP280;76704;51.574;7.088;2024-03-22T04:33:37;74162.63;;;16.18
75353;BMP280;76704;51.574;7.088;2024-03-22T04:36:06;74206.28;;;16.16
75353;BMP280;76704;51.574;7.088;2024-03-22T04:38:36;73518.47;;;16.04
75353;BMP280;76704;51.574;7.088;2024-03-22T04:41:04;73451.50;;;15.99
75353;BMP280;76704;51.574;7.088;2024-03-22T04:43:33;73813.66;;;16.05
75353;BMP280;76704;51.574;7.088;2024-03-22T04:46:01;73668.97;;;16.01
75353;BMP280;76704;51.574;7.088;2024-03-22T04:48:29;73578.84;;;16.00
75353;BMP280;76704;51.574;7.088;2024-03-22T04:50:56;73598.81;;;16.01
75353;BMP280;76704;51.574;7.088;2024-03-22T04:53:23;73514.00;;;15.94
75353;BMP280;76704;51.574;7.088;2024-03-22T04:55:52;73238.38;;;15.97
75353;BMP280;76704;51.574;7.088;2024-03-22T04:58:21;73652.78;;;16.01
75353;BMP280;76704;51.574;7.088;2024-03-22T05:00:49;73166.06;;;15.94
75353;BMP280;76704;51.574;7.088;2024-03-22T05:03:24;73828.72;;;16.04
75353;BMP280;76704;51.574;7.088;2024-03-22T05:05:52;73745.03;;;16.01
75353;BMP280;76704;51.574;7.088;2024-03-22T05:08:22;73424.38;;;15.91
75353;BMP280;76704;51.574;7.088;2024-03-22T05:10:52;73489.16;;;15.94
75353;BMP280;76704;51.574;7.088;2024-03-22T05:13:19;73250.69;;;15.90
75353;BMP280;76704;51.574;7.088;2024-03-22T05:15:48;73440.63;;;15.94
75353;BMP280;76704;51.574;7.088;2024-03-22T05:18:15;73031.09;;;15.84
75353;BMP280;76704;51.574;7.088;2024-03-22T05:20:45;73396.34;;;15.90
75353;BMP280;76704;51.574;7.088;2024-03-22T05:23:13;73718.50;;;15.97
75353;BMP280;76704;51.574;7.088;2024-03-22T05:25:43;73816.78;;;16.00
75353;BMP280;76704;51.574;7.088;2024-03-22T05:28:09;74008.38;;;16.03
75353;BMP280;76704;51.574;7.088;2024-03-22T05:30:38;74390.22;;;16.11
75353;BMP280;76704;51.574;7.088;2024-03-22T05:33:06;74292.41;;;16.08
75353;BMP280;76704;51.574;7.088;2024-03-22T05:35:33;74083.38;;;16.02
75353;BMP280;76704;51.574;7.088;2024-03-22T05:38:02;73803.31;;;16.03
75353;BMP280;76704;51.574;7.088;2024-03-22T05:40:31;73886.97;;;16.03
75353;BMP280;76704;51.574;7.088;2024-03-22T05:42:57;73993.31;;;16.04
75353;BMP280;76704;51.574;7.088;2024-03-22T05:45:26;73913.38;;;16.02
75353;BMP280;76704;51.574;7.088;2024-03-22T05:47:53;74069.97;;;16.05
75353;BMP280;76704;51.574;7.088;2024-03-22T05:50:20;74071.66;;;16.06
75353;BMP280;76704;51.574;7.088;2024-03-22T05:52:46;74053.69;;;16.02
75353;BMP280;76704;51.574;7.088;2024-03-22T05:55:13;74204.41;;;16.07
75353;BMP280;76704;51.574;7.088;2024-03-22T05:57:40;74044.09;;;16.06
75353;BMP280;76704;51.574;7.088;2024-03-22T06:00:08;74190.97;;;16.09
75353;BMP280;76704;51.574;7.088;2024-03-22T06:02:34;74346.00;;;16.13
75353;BMP280;76704;51.574;7.088;2024-03-22T06:05:01;74116.44;;;16.08
75353;BMP280;76704;51.574;7.088;2024-03-22T06:07:28;73916.09;;;16.02
75353;BMP280;76704;51.574;7.088;2024-03-22T06:09:58;74098.53;;;16.04
75353;BMP280;76704;51.574;7.088;2024-03-22T06:12:25;74253.63;;;16.10
75353;BMP280;76704;51.574;7.088;2024-03-22T06:14:51;74083.00;;;16.07
75353;BMP280;76704;51.574;7.088;2024-03-22T06:17:21;73889.66;;;16.03
75353;BMP280;76704;51.574;7.088;2024-03-22T06:19:47;74338.38;;;16.11
75353;BMP280;76704;51.574;7.088;2024-03-22T06:22:16;74479.91;;;16.14
75353;BMP280;76704;51.574;7.088;2024-03-22T06:24:44;74647.38;;;16.17
75353;BMP280;76704;51.574;7.088;2024-03-22T06:27:12;74792.66;;;16.19
75353;BMP280;76704;51.574;7.088;2024-03-22T06:29:43;74921.41;;;16.26
75353;BMP280;76704;51.574;7.088;2024-03-22T06:32:10;75100.97;;;16.32
75353;BMP280;76704;51.574;7.088;2024-03-22T06:34:36;74795.56;;;16.24
75353;BMP280;76704;51.574;7.088;2024-03-22T06:37:04;74762.59;;;16.23
75353;BMP280;76704;51.574;7.088;2024-03-22T06:39:30;74711.31;;;16.23
75353;BMP280;76704;51.574;7.088;2024-03-22T06:42:01;74869.69;;;16.28
75353;BMP280;76704;51.574;7.088;2024-03-22T06:44:30;74325.13;;;16.18
75353;BMP280;76704;51.574;7.088;2024-03-22T06:46:57;74628.47;;;16.17
75353;BMP280;76704;51.574;7.088;2024-03-22T06:49:25;74622.78;;;16.24
75353;BMP280;76704;51.574;7.088;2024-03-22T06:51:53;74882.63;;;16.27
75353;BMP280;76704;51.574;7.088;2024-03-22T06:54:20;75456.13;;;16.38
75353;BMP280;76704;51.574;7.088;2024-03-22T06:56:47;75573.66;;;16.44
75353;BMP280;76704;51.574;7.088;2024-03-22T06:59:13;75796.88;;;16.45
75353;BMP280;76704;51.574;7.088;2024-03-22T07:01:40;75942.06;;;16.52
75353;BMP280;76704;51.574;7.088;2024-03-22T07:04:07;76040.63;;;16.56
75353;BMP280;76704;51.574;7.088;2024-03-22T07:06:37;76233.38;;;16.61
75353;BMP280;76704;51.574;7.088;2024-03-22T07:09:03;76518.25;;;16.69
75353;BMP280;76704;51.574;7.088;2024-03-22T07:11:30;76396.44;;;16.67
75353;BMP280;76704;51.574;7.088;2024-03-22T07:14:01;76863.84;;;16.78
75353;BMP280;76704;51.574;7.088;2024-03-22T07:16:28;76894.94;;;16.82
75353;BMP280;76704;51.574;7.088;2024-03-22T07:18:55;76815.91;;;16.82
75353;BMP280;76704;51.574;7.088;2024-03-22T07:21:23;76595.19;;;16.80
75353;BMP280;76704;51.574;7.088;2024-03-22T07:23:51;76636.31;;;16.81
75353;BMP280;76704;51.574;7.088;2024-03-22T07:26:17;76944.53;;;16.88
75353;BMP280;76704;51.574;7.088;2024-03-22T07:28:45;76959.44;;;16.84
75353;BMP280;76704;51.574;7.088;2024-03-22T07:31:11;77282.81;;;16.97
75353;BMP280;76704;51.574;7.088;2024-03-22T07:33:39;77131.75;;;16.95
75353;BMP280;76704;51.574;7.088;2024-03-22T07:36:06;77246.69;;;16.99
75353;BMP280;76704;51.574;7.088;2024-03-22T07:38:32;77465.06;;;17.03
75353;BMP280;76704;51.574;7.088;2024-03-22T07:41:01;78018.19;;;17.16
75353;BMP280;76704;51.574;7.088;2024-03-22T07:43:33;78155.78;;;17.22
75353;BMP280;76704;51.574;7.088;2024-03-22T07:46:01;78510.16;;;17.20
75353;BMP280;76704;51.574;7.088;2024-03-22T07:48:27;78204.00;;;17.29
75353;BMP280;76704;51.574;7.088;2024-03-22T07:50:58;77699.66;;;17.26
75353;BMP280;76704;51.574;7.088;2024-03-22T07:53:27;78136.53;;;17.31
75353;BMP280;76704;51.574;7.088;2024-03-22T07:55:57;78133.22;;;17.31
75353;BMP280;76704;51.574;7.088;2024-03-22T07:58:25;78406.81;;;17.38
75353;BMP280;76704;51.574;7.088;2024-03-22T08:00:51;78577.00;;;17.45
75353;BMP280;76704;51.574;7.088;2024-03-22T08:03:19;78300.53;;;17.42
75353;BMP280;76704;51.574;7.088;2024-03-22T08:05:45;78966.28;;;17.53
75353;BMP280;76704;51.574;7.088;2024-03-22T08:08:13;79009.56;;;17.58
75353;BMP280;76704;51.574;7.088;2024-03-22T08:10:39;78768.19;;;17.55
75353;BMP280;76704;51.574;7.088;2024-03-22T08:13:05;78978.84;;;17.59
75353;BMP280;76704;51.574;7.088;2024-03-22T08:15:31;79162.38;;;17.68
75353;BMP280;76704;51.574;7.088;2024-03-22T08:18:00;79750.16;;;17.79
75353;BMP280;76704;51.574;7.088;2024-03-22T08:20:27;79692.28;;;17.85
75353;BMP280;76704;51.574;7.088;2024-03-22T08:22:55;79275.16;;;17.79
75353;BMP280;76704;51.574;7.088;2024-03-22T08:25:22;79820.91;;;17.91
75353;BMP280;76704;51.574;7.088;2024-03-22T08:27:51;80239.75;;;18.01
75353;BMP280;76704;51.574;7.088;2024-03-22T08:30:23;80091.75;;;18.02
75353;BMP280;76704;51.574;7.088;2024-03-22T08:32:51;80285.88;;;18.10
75353;BMP280;76704;51.574;7.088;2024-03-22T08:35:19;79483.44;;;17.94
75353;BMP280;76704;51.574;7.088;2024-03-22T08:37:48;79782.28;;;18.00
75353;BMP280;76704;51.574;7.088;2024-03-22T08:40:17;79850.34;;;18.02
75353;BMP280;76704;51.574;7.088;2024-03-22T08:42:45;80045.94;;;18.09
75353;BMP280;76704;51.574;7.088;2024-03-22T08:45:12;79791.88;;;18.08
75353;BMP280;76704;51.574;7.088;2024-03-22T08:47:43;80088.44;;;18.15
75353;BMP280;76704;51.574;7.088;2024-03-22T08:50:13;80389.91;;;18.18
75353;BMP280;76704;51.574;7.088;2024-03-22T08:52:42;80848.38;;;18.34
75353;BMP280;76704;51.574;7.088;2024-03-22T08:55:11;80354.66;;;18.27
75353;BMP280;76704;51.574;7.088;2024-03-22T08:57:41;80699.69;;;18.34
75353;BMP280;76704;51.574;7.088;2024-03-22T09:00:10;80989.00;;;18.42
75353;BMP280;76704;51.574;7.088;2024-03-22T09:02:38;80823.38;;;18.38
75353;BMP280;76704;51.574;7.088;2024-03-22T09:05:07;80786.56;;;18.39
75353;BMP280;76704;51.574;7.088;2024-03-22T09:07:34;80869.63;;;18.47
75353;BMP280;76704;51.574;7.088;2024-03-22T09:10:01;81104.41;;;18.52
75353;BMP280;76704;51.574;7.088;2024-03-22T09:12:28;81287.38;;;18.60
75353;BMP280;76704;51.574;7.088;2024-03-22T09:14:56;81384.00;;;18.64
75353;BMP280;76704;51.574;7.088;2024-03-22T09:17:23;81384.00;;;18.64
75353;BMP280;76704;51.574;7.088;2024-03-22T09:19:50;80983.19;;;18.60
75353;BMP280;76704;51.574;7.088;2024-03-22T09:22:17;81204.09;;;18.63
75353;BMP280;76704;51.574;7.088;2024-03-22T09:24:45;81485.56;;;18.71
75353;BMP280;76704;51.574;7.088;2024-03-22T09:27:12;81234.69;;;18.68
75353;BMP280;76704;51.574;7.088;2024-03-22T09:29:38;81717.91;;;18.81
75353;BMP280;76704;51.574;7.088;2024-03-22T09:32:06;82045.66;;;18.85
75353;BMP280;76704;51.574;7.088;2024-03-22T09:34:32;81390.66;;;18.80
75353;BMP280;76704;51.574;7.088;2024-03-22T09:37:00;80661.31;;;18.70
75353;BMP280;76704;51.574;7.088;2024-03-22T09:39:27;80780.97;;;18.55
75353;BMP280;76704;51.574;7.088;2024-03-22T09:41:58;80963.97;;;18.67
75353;BMP280;76704;51.574;7.088;2024-03-22T09:44:27;81036.78;;;18.75
75353;BMP280;76704;51.574;7.088;2024-03-22T09:46:55;81423.31;;;18.85
75353;BMP280;76704;51.574;7.088;2024-03-22T09:49:23;81158.53;;;18.84
75353;BMP280;76704;51.574;7.088;2024-03-22T09:51:51;81268.69;;;18.83
75353;BMP280;76704;51.574;7.088;2024-03-22T09:54:17;81382.28;;;18.87
75353;BMP280;76704;51.574;7.088;2024-03-22T09:56:48;81328.28;;;18.90
75353;BMP280;76704;51.574;7.088;2024-03-22T09:59:14;81442.41;;;18.90
75353;BMP280;76704;51.574;7.088;2024-03-22T10:01:41;81162.81;;;18.88
75353;BMP280;76704;51.574;7.088;2024-03-22T10:04:07;81419.22;;;18.91
75353;BMP280;76704;51.574;7.088;2024-03-22T10:06:35;82231.16;;;19.08
75353;BMP280;76704;51.574;7.088;2024-03-22T10:09:05;82377.25;;;19.14
75353;BMP280;76704;51.574;7.088;2024-03-22T10:11:33;82132.03;;;19.07
75353;BMP280;76704;51.574;7.088;2024-03-22T10:14:00;82296.91;;;19.15
75353;BMP280;76704;51.574;7.088;2024-03-22T10:16:33;82664.19;;;19.26
75353;BMP280;76704;51.574;7.088;2024-03-22T10:19:03;83350.38;;;19.33
75353;BMP280;76704;51.574;7.088;2024-03-22T10:21:29;83807.09;;;19.53
75353;BMP280;76704;51.574;7.088;2024-03-22T10:23:58;83475.38;;;19.55
75353;BMP280;76704;51.574;7.088;2024-03-22T10:26:26;84386.25;;;19.69
75353;BMP280;76704;51.574;7.088;2024-03-22T10:28:52;84425.66;;;19.70
75353;BMP280;76704;51.574;7.088;2024-03-22T10:31:19;84214.13;;;19.76
75353;BMP280;76704;51.574;7.088;2024-03-22T10:33:48;83988.22;;;19.74
75353;BMP280;76704;51.574;7.088;2024-03-22T10:36:16;83282.94;;;19.67
75353;BMP280;76704;51.574;7.088;2024-03-22T10:38:44;83728.44;;;19.70
75353;BMP280;76704;51.574;7.088;2024-03-22T10:41:11;83067.03;;;19.62
75353;BMP280;76704;51.574;7.088;2024-03-22T10:43:38;83492.78;;;19.65
75353;BMP280;76704;51.574;7.088;2024-03-22T10:46:06;83869.44;;;19.77
75353;BMP280;76704;51.574;7.088;2024-03-22T10:48:37;84203.75;;;19.85
75353;BMP280;76704;51.574;7.088;2024-03-22T10:51:08;83998.72;;;19.78
75353;BMP280;76704;51.574;7.088;2024-03-22T10:53:38;84020.41;;;19.86
75353;BMP280;76704;51.574;7.088;2024-03-22T10:56:07;84755.47;;;20.01
75353;BMP280;76704;51.574;7.088;2024-03-22T10:58:52;84394.00;;;19.97
75353;BMP280;76704;51.574;7.088;2024-03-22T11:01:26;84357.31;;;19.96
75353;BMP280;76704;51.574;7.088;2024-03-22T11:04:06;85019.84;;;20.10
75353;BMP280;76704;51.574;7.088;2024-03-22T11:06:36;85463.47;;;20.20
75353;BMP280;76704;51.574;7.088;2024-03-22T11:09:03;85311.94;;;20.23
75353;BMP280;76704;51.574;7.088;2024-03-22T11:11:35;85541.84;;;20.30
75353;BMP280;76704;51.574;7.088;2024-03-22T11:14:04;85310.81;;;20.28
75353;BMP280;76704;51.574;7.088;2024-03-22T11:16:30;85047.28;;;20.25
75353;BMP280;76704;51.574;7.088;2024-03-22T11:18:57;85603.34;;;20.38
75353;BMP280;76704;51.574;7.088;2024-03-22T11:21:24;84985.03;;;20.27
75353;BMP280;76704;51.574;7.088;2024-03-22T11:23:52;84840.69;;;20.25
75353;BMP280;76704;51.574;7.088;2024-03-22T11:26:20;85026.09;;;20.17
75353;BMP280;76704;51.574;7.088;2024-03-22T11:28:46;84861.69;;;20.27
75353;BMP280;76704;51.574;7.088;2024-03-22T11:31:13;84639.91;;;20.22
75353;BMP280;76704;51.574;7.088;2024-03-22T11:33:40;84919.59;;;20.27
75353;BMP280;76704;51.574;7.088;2024-03-22T11:36:10;84704.19;;;20.27
75353;BMP280;76704;51.574;7.088;2024-03-22T11:38:36;84757.44;;;20.26
75353;BMP280;76704;51.574;7.088;2024-03-22T11:41:03;85030.88;;;20.34
75353;BMP280;76704;51.574;7.088;2024-03-22T11:43:31;84511.13;;;20.21
75353;BMP280;76704;51.574;7.088;2024-03-22T11:45:59;83615.84;;;20.07
75353;BMP280;76704;51.574;7.088;2024-03-22T11:48:28;83562.19;;;19.99
75353;BMP280;76704;51.574;7.088;2024-03-22T11:50:56;82463.59;;;19.78
75353;BMP280;76704;51.574;7.088;2024-03-22T11:53:24;83257.50;;;19.95
75353;BMP280;76704;51.574;7.088;2024-03-22T11:55:50;82076.50;;;19.66
75353;BMP280;76704;51.574;7.088;2024-03-22T11:58:20;82914.88;;;19.84
75353;BMP280;76704;51.574;7.088;2024-03-22T12:00:47;82522.88;;;19.78
75353;BMP280;76704;51.574;7.088;2024-03-22T12:03:14;81055.41;;;19.52
75353;BMP280;76704;51.574;7.088;2024-03-22T12:05:41;81731.94;;;19.58
75353;BMP280;76704;51.574;7.088;2024-03-22T12:08:07;81533.00;;;19.56
75353;BMP280;76704;51.574;7.088;2024-03-22T12:10:33;81899.13;;;19.59
75353;BMP280;76704;51.574;7.088;2024-03-22T12:13:01;82122.63;;;19.62
75353;BMP280;76704;51.574;7.088;2024-03-22T12:15:28;81102.44;;;19.41
75353;BMP280;76704;51.574;7.088;2024-03-22T12:17:54;81083.69;;;19.39
75353;BMP280;76704;51.574;7.088;2024-03-22T12:20:24;81318.50;;;19.43
75353;BMP280;76704;51.574;7.088;2024-03-22T12:22:50;80970.63;;;19.31
75353;BMP280;76704;51.574;7.088;2024-03-22T12:25:18;80948.19;;;19.22
75353;BMP280;76704;51.574;7.088;2024-03-22T12:27:47;80790.84;;;19.29
75353;BMP280;76704;51.574;7.088;2024-03-22T12:30:14;80050.72;;;19.12
75353;BMP280;76704;51.574;7.088;2024-03-22T12:32:42;80141.88;;;19.11
75353;BMP280;76704;51.574;7.088;2024-03-22T12:35:08;79137.75;;;18.89
75353;BMP280;76704;51.574;7.088;2024-03-22T12:37:37;78904.44;;;18.79
75353;BMP280;76704;51.574;7.088;2024-03-22T12:40:06;78375.56;;;18.66
75353;BMP280;76704;51.574;7.088;2024-03-22T12:42:37;79110.19;;;18.79
75353;BMP280;76704;51.574;7.088;2024-03-22T12:45:03;78610.16;;;18.67
75353;BMP280;76704;51.574;7.088;2024-03-22T12:47:29;78478.81;;;18.61
75353;BMP280;76704;51.574;7.088;2024-03-22T12:49:57;77807.47;;;18.46
75353;BMP280;76704;51.574;7.088;2024-03-22T12:52:23;78384.34;;;18.55
75353;BMP280;76704;51.574;7.088;2024-03-22T12:54:50;77993.06;;;18.47
75353;BMP280;76704;51.574;7.088;2024-03-22T12:57:16;78393.44;;;18.53
75353;BMP280;76704;51.574;7.088;2024-03-22T12:59:49;77807.06;;;18.41
75353;BMP280;76704;51.574;7.088;2024-03-22T13:02:16;78297.22;;;18.45
75353;BMP280;76704;51.574;7.088;2024-03-22T13:04:44;77582.94;;;18.32
75353;BMP280;76704;51.574;7.088;2024-03-22T13:07:10;77538.22;;;18.29
75353;BMP280;76704;51.574;7.088;2024-03-22T13:09:36;77527.56;;;18.24
75353;BMP280;76704;51.574;7.088;2024-03-22T13:12:04;77868.22;;;18.33
75353;BMP280;76704;51.574;7.088;2024-03-22T13:14:30;77239.28;;;18.18
75353;BMP280;76704;51.574;7.088;2024-03-22T13:16:58;77508.38;;;18.21
75353;BMP280;76704;51.574;7.088;2024-03-22T13:19:25;76486.94;;;18.00
75353;BMP280;76704;51.574;7.088;2024-03-22T13:21:53;77048.28;;;18.08
75353;BMP280;76704;51.574;7.088;2024-03-22T13:24:20;77139.81;;;18.07
75353;BMP280;76704;51.574;7.088;2024-03-22T13:26:49;77070.16;;;18.03
75353;BMP280;76704;51.574;7.088;2024-03-22T13:29:15;77092.25;;;18.01
75353;BMP280;76704;51.574;7.088;2024-03-22T13:31:44;76459.06;;;17.87
75353;BMP280;76704;51.574;7.088;2024-03-22T13:34:11;76406.50;;;17.86
75353;BMP280;76704;51.574;7.088;2024-03-22T13:36:38;76129.84;;;17.79
75353;BMP280;76704;51.574;7.088;2024-03-22T13:39:04;75547.50;;;17.61
75353;BMP280;76704;51.574;7.088;2024-03-22T13:41:31;75248.13;;;17.60
75353;BMP280;76704;51.574;7.088;2024-03-22T13:44:00;75630.94;;;17.63
75353;BMP280;76704;51.574;7.088;2024-03-22T13:46:30;75035.16;;;17.53
75353;BMP280;76704;51.574;7.088;2024-03-22T13:48:57;75745.91;;;17.57
75353;BMP280;76704;51.574;7.088;2024-03-22T13:51:30;75099.25;;;17.45
75353;BMP280;76704;51.574;7.088;2024-03-22T13:54:00;75537.88;;;17.53
75353;BMP280;76704;51.574;7.088;2024-03-22T13:56:26;75659.22;;;17.55
75353;BMP280;76704;51.574;7.088;2024-03-22T13:58:52;75532.91;;;17.51
75353;BMP280;76704;51.574;7.088;2024-03-22T14:01:20;75761.22;;;17.49
75353;BMP280;76704;51.574;7.088;2024-03-22T14:03:46;76053.91;;;17.57
75353;BMP280;76704;51.574;7.088;2024-03-22T14:06:14;75206.25;;;17.42
75353;BMP280;76704;51.574;7.088;2024-03-22T14:08:42;75273.63;;;17.36
75353;BMP280;76704;51.574;7.088;2024-03-22T14:11:10;74978.69;;;17.34